Time;durP1;ratioP1;P1;durP2;ratioP2;P2;SDS_P1;SDS_P2;PMS_P1;PMS_P2;Temp;Humidity;BMP_temperature;BMP_pressure;BME280_temperature;BME280_humidity;BME280_pressure;Samples;Min_cycle;Max_cycle;Signal;HPM_P1;HPM_P2
2023/07/12 00:01:39;;;;;;;22.00;15.10;;;;;;;17.11;100.00;101091.70;109922;1241;60737;-69
2023/07/12 00:04:08;;;;;;;18.50;15.20;;;;;;;17.09;100.00;101090.63;109991;1238;70194;-69
2023/07/12 00:06:39;;;;;;;16.50;14.10;;;;;;;17.07;100.00;101090.86;109972;1239;74294;-69
2023/07/12 00:09:14;;;;;;;16.10;13.60;;;;;;;17.05;100.00;101094.52;109993;1241;57482;-69
2023/07/12 00:11:43;;;;;;;15.70;13.20;;;;;;;17.01;100.00;101095.67;109941;1242;60978;-69
2023/07/12 00:14:11;;;;;;;16.40;12.50;;;;;;;17.00;100.00;101099.82;110035;1238;62744;-70
2023/07/12 00:16:41;;;;;;;18.20;14.10;;;;;;;17.01;100.00;101103.42;110024;1238;61392;-69
2023/07/12 00:19:14;;;;;;;16.40;14.10;;;;;;;17.01;100.00;101107.65;109734;1238;69529;-70
2023/07/12 00:21:43;;;;;;;18.30;14.10;;;;;;;16.99;100.00;101106.77;109625;1242;62828;-69
2023/07/12 00:24:12;;;;;;;20.10;14.80;;;;;;;16.90;100.00;101102.98;109873;1241;57565;-70
2023/07/12 00:26:41;;;;;;;19.70;15.80;;;;;;;16.84;100.00;101102.89;109857;1238;60956;-69
2023/07/12 00:29:09;;;;;;;19.60;17.10;;;;;;;16.72;100.00;101096.43;109863;1238;74006;-69
2023/07/12 00:31:39;;;;;;;19.80;16.90;;;;;;;16.64;100.00;101089.19;109865;1241;71773;-69
2023/07/12 00:34:08;;;;;;;20.10;16.50;;;;;;;16.57;100.00;101088.95;109645;1240;69161;-69
2023/07/12 00:36:36;;;;;;;19.00;15.40;;;;;;;16.42;100.00;101091.69;109954;1238;74503;-67
2023/07/12 00:39:06;;;;;;;20.30;15.50;;;;;;;16.37;100.00;101089.69;109629;1244;57728;-68
2023/07/12 00:42:06;;;;;;;19.90;16.30;;;;;;;16.34;100.00;101084.59;109782;1240;57700;-68
2023/07/12 00:44:49;;;;;;;22.40;16.30;;;;;;;16.29;100.00;101074.67;109874;1238;62004;-68
2023/07/12 00:47:19;;;;;;;18.80;16.20;;;;;;;16.24;100.00;101068.08;109851;1238;72098;-69
2023/07/12 00:49:48;;;;;;;21.00;16.10;;;;;;;16.22;100.00;101065.65;110048;1238;59368;-67
2023/07/12 00:52:20;;;;;;;18.50;16.10;;;;;;;16.21;100.00;101061.85;110004;1240;62443;-69
2023/07/12 00:55:01;;;;;;;17.20;14.20;;;;;;;16.19;100.00;101057.45;109770;1241;61846;-68
2023/07/12 00:57:32;;;;;;;13.70;11.80;;;;;;;16.16;100.00;101052.77;110026;1239;57242;-68
2023/07/12 01:00:10;;;;;;;15.10;12.10;;;;;;;16.13;100.00;101054.14;109713;1243;72962;-68
2023/07/12 01:02:45;;;;;;;13.40;11.10;;;;;;;16.10;100.00;101059.13;109831;1240;61837;-69
2023/07/12 01:05:15;;;;;;;15.60;11.40;;;;;;;16.11;100.00;101063.11;109838;1239;70384;-69
2023/07/12 01:07:44;;;;;;;14.60;10.90;;;;;;;16.11;100.00;101059.75;109965;1240;63689;-69
2023/07/12 01:10:13;;;;;;;15.10;11.70;;;;;;;16.11;100.00;101057.61;109975;1241;57266;-70
2023/07/12 01:12:46;;;;;;;15.40;12.90;;;;;;;16.10;100.00;101056.32;109883;1238;57738;-69
2023/07/12 01:15:14;;;;;;;;;;;;;;;16.10;100.00;101057.88;110088;1240;73662;-69
2023/07/12 01:17:43;;;;;;;13.80;11.70;;;;;;;16.11;100.00;101059.58;109991;1238;61334;-70
2023/07/12 01:20:12;;;;;;;17.90;13.20;;;;;;;16.13;100.00;101065.84;110067;1238;59779;-69
2023/07/12 01:22:42;;;;;;;17.80;14.30;;;;;;;16.14;100.00;101068.23;110064;1238;63043;-69
2023/07/12 01:25:12;;;;;;;19.50;15.80;;;;;;;16.14;100.00;101062.24;109934;1240;61890;-68
2023/07/12 01:27:41;;;;;;;19.00;15.20;;;;;;;16.10;100.00;101057.91;110041;1239;62367;-68
2023/07/12 01:30:10;;;;;;;20.70;15.10;;;;;;;16.03;100.00;101060.32;109962;1238;73784;-68
2023/07/12 01:32:40;;;;;;;18.90;14.10;;;;;;;15.99;100.00;101058.23;109896;1242;71477;-69
2023/07/12 01:35:11;;;;;;;18.80;13.90;;;;;;;15.97;100.00;101058.07;109793;1238;70677;-69
2023/07/12 01:37:40;;;;;;;19.00;14.40;;;;;;;15.98;100.00;101059.17;109929;1238;64280;-68
2023/07/12 01:40:09;;;;;;;15.60;12.30;;;;;;;15.97;100.00;101061.73;109973;1239;61856;-68
2023/07/12 01:42:43;;;;;;;17.00;13.90;;;;;;;15.96;100.00;101065.89;109918;1238;61485;-68
2023/07/12 01:45:12;;;;;;;18.80;14.90;;;;;;;15.94;100.00;101070.80;109679;1238;63341;-68
2023/07/12 01:47:42;;;;;;;15.90;13.80;;;;;;;15.86;100.00;101074.60;110057;1238;61438;-68
2023/07/12 01:50:11;;;;;;;17.90;13.60;;;;;;;15.82;100.00;101081.83;109968;1238;70438;-68
2023/07/12 01:52:40;;;;;;;18.30;13.60;;;;;;;15.81;100.00;101082.78;109947;1238;64337;-68
2023/07/12 01:55:09;;;;;;;18.70;14.60;;;;;;;15.78;100.00;101085.67;110024;1239;57662;-68
2023/07/12 01:57:38;;;;;;;18.20;15.00;;;;;;;15.79;100.00;101088.82;109990;1238;60278;-68
2023/07/12 02:00:08;;;;;;;17.90;14.30;;;;;;;15.81;100.00;101088.94;109918;1238;73680;-68
2023/07/12 02:02:43;;;;;;;17.70;13.70;;;;;;;15.76;100.00;101086.45;109975;1239;61487;-68
2023/07/12 02:05:12;;;;;;;16.40;14.40;;;;;;;15.75;100.00;101089.52;109688;1240;70600;-69
2023/07/12 02:07:41;;;;;;;18.20;13.90;;;;;;;15.72;100.00;101095.06;109700;1240;63903;-68
2023/07/12 02:10:18;;;;;;;15.90;13.80;;;;;;;15.65;100.00;101101.25;109882;1241;61864;-70
2023/07/12 02:12:47;;;;;;;20.20;14.90;;;;;;;15.55;100.00;101103.66;109779;1240;58160;-69
2023/07/12 02:15:17;;;;;;;16.70;14.20;;;;;;;15.54;100.00;101101.31;109889;1241;73286;-70
2023/07/12 02:17:46;;;;;;;17.30;14.70;;;;;;;15.51;100.00;101105.95;109795;1241;61330;-70
2023/07/12 02:20:15;;;;;;;18.90;13.50;;;;;;;15.48;100.00;101109.73;109600;1241;70438;-69
2023/07/12 02:22:46;;;;;;;18.70;14.30;;;;;;;15.43;100.00;101113.34;109618;1241;63652;-69
2023/07/12 02:25:18;;;;;;;;;;;;;;;15.39;100.00;101118.79;109818;1241;57781;-69
2023/07/12 02:27:48;;;;;;;19.40;14.90;;;;;;;15.33;100.00;101124.49;109617;1241;57193;-68
2023/07/12 02:30:24;;;;;;;16.00;13.40;;;;;;;15.28;100.00;101128.96;109735;1241;63009;-69
2023/07/12 02:32:54;;;;;;;17.10;13.50;;;;;;;15.24;100.00;101131.81;109632;1241;70756;-69
2023/07/12 02:35:29;;;;;;;18.10;13.70;;;;;;;15.20;100.00;101132.16;109614;1241;61837;-68
2023/07/12 02:38:00;;;;;;;15.80;13.20;;;;;;;15.16;100.00;101127.79;109620;1240;63576;-68
2023/07/12 02:40:28;;;;;;;21.60;13.60;;;;;;;15.12;100.00;101130.37;109652;1244;57325;-68
2023/07/12 02:42:57;;;;;;;17.80;13.60;;;;;;;15.08;100.00;101124.23;109861;1240;61056;-68
2023/07/12 02:45:26;;;;;;;17.10;13.90;;;;;;;15.06;100.00;101130.14;109788;1241;62586;-69
2023/07/12 02:47:55;;;;;;;18.30;13.20;;;;;;;15.02;100.00;101136.80;109798;1241;69841;-68
2023/07/12 02:50:23;;;;;;;15.80;12.70;;;;;;;14.99;100.00;101135.70;109822;1241;70957;-69
2023/07/12 02:52:55;;;;;;;19.00;12.80;;;;;;;14.97;100.00;101133.92;109806;1241;64958;-67
2023/07/12 02:55:23;;;;;;;16.50;13.40;;;;;;;14.94;100.00;101130.63;109806;1240;61840;-68
2023/07/12 02:57:52;;;;;;;19.00;13.50;;;;;;;14.92;100.00;101131.88;109818;1241;58171;-68
2023/07/12 03:00:21;;;;;;;15.30;12.60;;;;;;;14.92;100.00;101136.66;109825;1241;62764;-68
2023/07/12 03:02:50;;;;;;;16.80;13.30;;;;;;;14.93;100.00;101139.02;109802;1241;72235;-68
2023/07/12 03:05:18;;;;;;;14.20;12.70;;;;;;;14.95;100.00;101143.23;109807;1241;70048;-68
2023/07/12 03:07:47;;;;;;;17.50;13.80;;;;;;;14.96;100.00;101144.70;109773;1240;63618;-68
2023/07/12 03:10:16;;;;;;;16.00;12.90;;;;;;;14.98;100.00;101144.86;109702;1242;57697;-69
2023/07/12 03:12:44;;;;;;;16.60;13.40;;;;;;;15.04;100.00;101149.05;109797;1241;57666;-68
2023/07/12 03:15:13;;;;;;;14.90;12.50;;;;;;;15.07;100.00;101150.59;109704;1241;63776;-68
2023/07/12 03:17:42;;;;;;;16.20;13.10;;;;;;;15.10;100.00;101154.35;109807;1240;60750;-68
2023/07/12 03:20:11;;;;;;;16.90;12.80;;;;;;;15.14;100.00;101155.30;109910;1241;59856;-68
2023/07/12 03:22:40;;;;;;;16.40;12.00;;;;;;;15.15;100.00;101159.39;109920;1240;63074;-69
2023/07/12 03:25:09;;;;;;;16.60;12.40;;;;;;;15.16;100.00;101159.65;109788;1242;62664;-68
2023/07/12 03:27:37;;;;;;;18.70;12.80;;;;;;;15.19;100.00;101165.74;109899;1240;61750;-69
2023/07/12 03:30:07;;;;;;;18.00;12.40;;;;;;;15.21;100.00;101166.77;109944;1241;63791;-69
2023/07/12 03:32:35;;;;;;;15.70;13.30;;;;;;;15.26;100.00;101170.77;109920;1240;72194;-69
2023/07/12 03:35:04;;;;;;;16.40;12.90;;;;;;;15.30;100.00;101174.08;109898;1240;60494;-69
2023/07/12 03:37:33;;;;;;;15.30;12.60;;;;;;;15.35;100.00;101181.00;109886;1240;62427;-69
2023/07/12 03:40:03;;;;;;;14.80;12.00;;;;;;;15.40;100.00;101189.55;109908;1240;57433;-69
2023/07/12 03:42:32;;;;;;;19.90;14.20;;;;;;;15.44;100.00;101191.73;109926;1240;57185;-68
2023/07/12 03:45:01;;;;;;;17.90;13.90;;;;;;;15.54;100.00;101190.98;109888;1241;73784;-71
2023/07/12 03:47:30;;;;;;;20.20;15.40;;;;;;;15.53;100.00;101189.36;109853;1241;62398;-70
2023/07/12 03:49:59;;;;;;;22.40;15.80;;;;;;;15.53;100.00;101190.52;109780;1241;68659;-70
2023/07/12 03:52:28;;;;;;;20.20;15.60;;;;;;;15.59;100.00;101194.59;109717;1240;74197;-70
2023/07/12 03:54:56;;;;;;;19.80;13.40;;;;;;;15.71;100.00;101198.23;109750;1241;57817;-69
2023/07/12 03:57:25;;;;;;;17.80;13.00;;;;;;;15.80;100.00;101195.27;109698;1242;57214;-69
2023/07/12 03:59:54;;;;;;;18.90;14.30;;;;;;;15.84;100.00;101194.02;109744;1241;62033;-70
2023/07/12 04:02:23;;;;;;;19.60;15.00;;;;;;;15.84;100.00;101200.39;109722;1241;71439;-70
2023/07/12 04:04:52;;;;;;;16.80;14.40;;;;;;;15.75;100.00;101194.47;109690;1240;69780;-69
2023/07/12 04:07:20;;;;;;;25.40;15.50;;;;;;;15.77;100.00;101193.27;109723;1240;74914;-69
2023/07/12 04:09:49;;;;;;;20.50;15.00;;;;;;;15.82;100.00;101201.04;109746;1241;57140;-69
2023/07/12 04:12:18;;;;;;;20.60;13.00;;;;;;;15.88;100.00;101191.78;109778;1240;58953;-69
2023/07/12 04:14:47;;;;;;;15.60;12.70;;;;;;;16.00;100.00;101198.49;109855;1241;73440;-69
2023/07/12 04:17:15;;;;;;;16.90;12.70;;;;;;;16.09;100.00;101200.80;109903;1240;72557;-69
2023/07/12 04:19:44;;;;;;;15.40;13.50;;;;;;;16.16;100.00;101207.04;109765;1240;59036;-69
2023/07/12 04:22:13;;;;;;;18.00;13.20;;;;;;;16.24;100.00;101209.20;109892;1239;62438;-69
2023/07/12 04:24:42;;;;;;;18.20;14.10;;;;;;;16.34;100.00;101203.02;109897;1241;62716;-69
2023/07/12 04:27:10;;;;;;;16.00;13.80;;;;;;;16.38;100.00;101197.00;109901;1240;61451;-67
2023/07/12 04:29:39;;;;;;;17.70;13.90;;;;;;;16.43;100.00;101193.23;109931;1241;62560;-70
2023/07/12 04:32:08;;;;;;;16.50;14.10;;;;;;;16.52;100.00;101194.26;109937;1241;69729;-68
2023/07/12 04:34:37;;;;;;;16.20;12.60;;;;;;;16.60;100.00;101195.39;109931;1241;60400;-67
2023/07/12 04:37:07;;;;;;;25.30;13.70;;;;;;;16.66;100.00;101195.37;109886;1241;62256;-66
2023/07/12 04:39:36;;;;;;;14.60;10.60;;;;;;;16.80;100.00;101197.70;109880;1241;62848;-68
2023/07/12 04:42:06;;;;;;;20.00;12.90;;;;;;;16.93;100.00;101195.05;109864;1240;61386;-72
2023/07/12 04:44:34;;;;;;;12.60;10.10;;;;;;;17.05;100.00;101191.15;109551;1240;73304;-67
2023/07/12 04:47:03;;;;;;;14.00;10.70;;;;;;;17.15;100.00;101192.83;109941;1241;61150;-67
2023/07/12 04:49:33;;;;;;;12.50;9.80;;;;;;;17.21;100.00;101191.73;109910;1240;70415;-71
2023/07/12 04:52:04;;;;;;;13.60;10.30;;;;;;;17.34;100.00;101189.35;109790;1241;74298;-68
2023/07/12 04:54:34;;;;;;;11.20;9.30;;;;;;;17.47;100.00;101188.34;109786;1241;57301;-68
2023/07/12 04:57:03;;;;;;;11.50;9.40;;;;;;;17.59;100.00;101193.46;109723;1238;60183;-68
2023/07/12 14:03:49;;;;;;;4.30;3.20;;;;;;;35.19;33.83;100810.45;104931;1277;602279;-72
2023/07/12 14:06:18;;;;;;;5.70;3.40;;;;;;;35.59;33.68;100808.84;107311;1247;60760;-71
2023/07/12 14:09:09;;;;;;;5.50;3.20;;;;;;;35.48;33.38;100800.23;107171;1247;57732;-72
2023/07/12 14:11:38;;;;;;;;;;;;;;;36.61;31.90;100791.10;107059;1260;60404;-73
2023/07/12 14:14:13;;;;;;;5.80;3.40;;;;;;;36.94;31.15;100787.45;107199;1247;62380;-74
2023/07/12 14:16:42;;;;;;;4.70;3.70;;;;;;;35.75;32.39;100790.35;106821;1250;267098;-72
2023/07/12 14:19:11;;;;;;;4.90;3.50;;;;;;;35.41;32.97;100787.12;107137;1244;72188;-71
2023/07/12 14:21:40;;;;;;;6.10;3.10;;;;;;;34.83;33.88;100786.20;107350;1245;61516;-72
2023/07/12 14:24:14;;;;;;;5.30;3.80;;;;;;;35.56;33.35;100779.70;107582;1248;61900;-72
2023/07/12 14:26:43;;;;;;;5.30;3.10;;;;;;;34.14;34.87;100776.83;107880;1247;72836;-71
2023/07/12 14:29:11;;;;;;;7.20;3.80;;;;;;;35.47;33.55;100777.27;107672;1248;71794;-72
2023/07/12 14:32:00;;;;;;;3.70;3.30;;;;;;;35.16;33.95;100776.83;107694;1248;59830;-72
2023/07/12 19:58:52;;;;;;;8.30;5.10;;;;;;;24.67;71.39;100643.27;104899;1279;600449;-74
2023/07/12 20:01:23;;;;;;;10.70;4.70;;;;;;;24.67;71.59;100637.72;106678;1260;58251;-72
2023/07/12 20:03:55;;;;;;;10.70;6.00;;;;;;;24.68;71.71;100629.23;107139;1251;57375;-78
2023/07/12 20:06:26;;;;;;;9.60;5.50;;;;;;;24.68;71.73;100625.61;107380;1251;62365;-76
2023/07/12 20:08:55;;;;;;;10.00;5.30;;;;;;;24.67;72.10;100624.05;107079;1248;71513;-82
2023/07/12 20:11:25;;;;;;;8.60;6.00;;;;;;;24.71;71.79;100621.53;106820;1254;236298;-82
2023/07/12 20:13:55;;;;;;;9.90;5.70;;;;;;;24.76;71.53;100620.68;107204;1247;63825;-77
2023/07/12 20:16:27;;;;;;;8.00;5.20;;;;;;;24.85;70.73;100623.71;107203;1251;62285;-77
2023/07/12 20:18:56;;;;;;;14.50;5.80;;;;;;;24.95;70.22;100626.25;107217;1248;60753;-79
2023/07/12 20:21:25;;;;;;;8.70;4.80;;;;;;;24.97;70.07;100623.05;107128;1250;61546;-79
2023/07/12 20:23:54;;;;;;;8.20;5.50;;;;;;;24.97;69.93;100621.15;107168;1248;60888;-74
2023/07/12 20:26:23;;;;;;;9.50;5.00;;;;;;;24.95;70.25;100621.52;107331;1248;70404;-74
2023/07/12 20:28:52;;;;;;;7.70;5.50;;;;;;;24.91;70.61;100628.92;107282;1247;63641;-72
2023/07/12 20:31:21;;;;;;;9.90;5.20;;;;;;;24.91;70.68;100640.77;107364;1246;60331;-73
2023/07/12 20:33:50;;;;;;;10.50;5.00;;;;;;;24.86;71.00;100647.09;107284;1247;59453;-72
2023/07/12 20:36:18;;;;;;;33.30;24.90;;;;;;;24.79;71.41;100651.14;107492;1248;73357;-73
2023/07/12 20:38:50;;;;;;;11.10;5.80;;;;;;;24.74;71.49;100656.71;107069;1259;62032;-73
2023/07/12 20:41:19;;;;;;;8.00;5.30;;;;;;;24.69;71.76;100659.59;107313;1252;69424;-72
2023/07/12 20:43:47;;;;;;;10.30;5.40;;;;;;;24.67;71.92;100667.59;107111;1247;73339;-73
2023/07/12 20:46:16;;;;;;;10.40;5.10;;;;;;;24.64;72.20;100670.40;107157;1254;57725;-73
2023/07/12 20:48:46;;;;;;;8.40;5.40;;;;;;;24.65;72.21;100672.84;107121;1248;57569;-72
2023/07/12 20:51:16;;;;;;;10.30;5.60;;;;;;;24.66;72.39;100678.07;107164;1248;62084;-73
2023/07/12 20:53:48;;;;;;;10.40;5.80;;;;;;;24.69;72.90;100683.21;107178;1248;60726;-74
2023/07/12 20:56:21;;;;;;;9.30;5.60;;;;;;;24.69;73.05;100686.09;107034;1248;70477;-72
2023/07/12 20:58:54;;;;;;;9.40;5.20;;;;;;;24.67;73.70;100687.97;107131;1247;63467;-73
2023/07/12 21:01:26;;;;;;;7.50;5.40;;;;;;;24.67;74.63;100690.31;107091;1257;58287;-74
2023/07/12 21:03:56;;;;;;;11.80;6.00;;;;;;;24.65;74.71;100691.67;107060;1251;61200;-72
2023/07/12 21:06:25;;;;;;;8.00;5.00;;;;;;;24.62;75.18;100687.89;107069;1258;73605;-71
2023/07/12 21:08:59;;;;;;;8.20;5.90;;;;;;;24.63;75.71;100682.64;107045;1250;71964;-72
2023/07/12 21:11:30;;;;;;;11.80;5.50;;;;;;;24.60;76.24;100684.42;107013;1248;70805;-73
2023/07/12 21:13:58;;;;;;;9.10;5.70;;;;;;;24.51;76.36;100675.74;107266;1248;73964;-73
2023/07/12 21:16:27;;;;;;;8.50;5.80;;;;;;;24.46;75.95;100671.87;107224;1248;57434;-73
2023/07/12 21:18:56;;;;;;;8.70;5.80;;;;;;;24.40;78.05;100678.11;107088;1249;59462;-74
2023/07/12 21:21:25;;;;;;;6.80;5.30;;;;;;;24.37;78.27;100679.77;107240;1247;73144;-72
2023/07/12 21:23:54;;;;;;;8.80;5.60;;;;;;;24.32;79.31;100681.42;107256;1248;61978;-73
2023/07/12 21:26:25;;;;;;;8.00;6.10;;;;;;;24.27;80.20;100688.02;107124;1247;69372;-72
2023/07/12 21:28:56;;;;;;;10.90;6.20;;;;;;;24.22;80.70;100689.16;107103;1248;73449;-74
2023/07/12 21:31:26;;;;;;;9.10;5.90;;;;;;;24.22;80.55;100683.04;107131;1258;61749;-72
2023/07/12 21:33:55;;;;;;;9.70;6.10;;;;;;;24.19;80.78;100677.29;107160;1248;59030;-73
2023/07/12 21:36:24;;;;;;;11.00;6.00;;;;;;;24.16;81.38;100677.77;107217;1258;61196;-73
2023/07/12 21:38:53;;;;;;;12.20;6.10;;;;;;;24.12;82.07;100681.12;107160;1248;72221;-74
2023/07/12 21:41:21;;;;;;;10.60;5.80;;;;;;;24.08;82.21;100676.64;107165;1248;69365;-73
2023/07/12 21:43:50;;;;;;;12.40;6.10;;;;;;;24.06;82.67;100667.23;107047;1258;64001;-75
2023/07/12 21:46:19;;;;;;;15.40;6.30;;;;;;;24.07;82.99;100663.99;107263;1248;58860;-73
2023/07/12 21:48:48;;;;;;;10.30;7.10;;;;;;;24.06;82.52;100667.45;107079;1248;60002;-73
2023/07/12 21:51:20;;;;;;;8.60;6.10;;;;;;;24.08;81.03;100666.98;107109;1246;73120;-73
2023/07/12 21:53:52;;;;;;;11.30;6.80;;;;;;;24.11;82.33;100663.10;107186;1248;61468;-72
2023/07/12 21:56:22;;;;;;;9.70;7.30;;;;;;;24.12;83.29;100654.65;106985;1248;70127;-71
2023/07/12 21:58:51;;;;;;;9.30;6.30;;;;;;;24.12;82.81;100650.14;107084;1245;74172;-72
2023/07/12 22:01:20;;;;;;;10.60;6.40;;;;;;;24.10;82.69;100656.45;106985;1249;60856;-74
2023/07/12 22:03:49;;;;;;;11.80;6.70;;;;;;;24.11;82.06;100660.83;107017;1244;60297;-73
2023/07/12 22:06:20;;;;;;;10.30;6.60;;;;;;;24.09;82.91;100660.13;106999;1248;73145;-73
2023/07/12 22:08:49;;;;;;;11.50;6.40;;;;;;;24.05;84.25;100663.48;107138;1248;61929;-75
2023/07/12 22:11:21;;;;;;;9.00;6.30;;;;;;;24.02;84.13;100661.30;107241;1245;59857;-75
2023/07/12 22:13:53;;;;;;;14.00;6.70;;;;;;;23.98;83.68;100659.20;107340;1257;63122;-74
2023/07/12 22:16:21;;;;;;;11.10;6.50;;;;;;;23.97;82.32;100657.75;107328;1245;61013;-74
2023/07/12 22:18:50;;;;;;;12.40;6.90;;;;;;;23.99;82.45;100662.86;107314;1245;59055;-73
2023/07/12 22:21:20;;;;;;;13.60;7.20;;;;;;;23.96;82.60;100662.39;107329;1245;61920;-70
2023/07/12 22:23:50;;;;;;;14.80;7.10;;;;;;;24.00;81.20;100668.44;107068;1245;71405;-73
2023/07/12 22:26:24;;;;;;;11.40;7.30;;;;;;;23.98;81.44;100672.94;107116;1244;70590;-75
2023/07/12 22:28:54;;;;;;;11.40;6.60;;;;;;;23.98;80.89;100683.27;107120;1248;73157;-73
2023/07/12 22:31:23;;;;;;;11.10;6.90;;;;;;;23.94;80.72;100689.23;107112;1248;60662;-72
2023/07/12 22:33:52;;;;;;;8.90;6.40;;;;;;;23.88;82.19;100693.98;107170;1245;59033;-73
2023/07/12 22:36:21;;;;;;;9.20;6.40;;;;;;;23.80;84.18;100692.23;107037;1248;72699;-73
2023/07/12 22:38:50;;;;;;;13.70;6.80;;;;;;;23.59;88.45;100688.29;107128;1255;70764;-72
2023/07/12 22:41:20;;;;;;;9.10;6.80;;;;;;;23.46;89.82;100678.52;107130;1244;61675;-72
2023/07/12 22:43:49;;;;;;;10.10;6.90;;;;;;;23.35;89.81;100672.30;107099;1245;63804;-72
2023/07/12 22:46:18;;;;;;;16.30;6.90;;;;;;;23.21;91.51;100674.99;107219;1248;58078;-72
2023/07/12 22:48:47;;;;;;;8.70;6.70;;;;;;;23.16;92.66;100671.27;107304;1245;59171;-73
2023/07/12 22:51:16;;;;;;;10.30;6.70;;;;;;;23.08;93.52;100675.56;107113;1245;62010;-71
2023/07/12 22:53:45;;;;;;;11.30;6.60;;;;;;;22.98;94.05;100677.61;107014;1256;61484;-71
2023/07/12 22:56:20;;;;;;;10.20;6.60;;;;;;;22.82;97.33;100679.95;107056;1248;59943;-72
2023/07/12 22:58:49;;;;;;;11.30;7.50;;;;;;;22.64;99.67;100683.95;107060;1257;72084;-71
2023/07/12 23:01:19;;;;;;;9.70;6.70;;;;;;;22.53;100.00;100684.58;107135;1245;59046;-71
2023/07/12 23:03:49;;;;;;;10.80;6.70;;;;;;;22.43;100.00;100689.72;107067;1248;59382;-72
2023/07/12 23:06:17;;;;;;;9.80;6.70;;;;;;;22.33;100.00;100689.77;107066;1257;71963;-73
2023/07/12 23:08:47;;;;;;;11.40;7.30;;;;;;;22.25;100.00;100688.09;106999;1248;60655;-72
2023/07/12 23:11:15;;;;;;;12.70;7.30;;;;;;;22.14;100.00;100678.52;107121;1252;69609;-71
2023/07/12 23:13:47;;;;;;;10.10;7.20;;;;;;;22.08;100.00;100679.48;106937;1248;62394;-72
2023/07/12 23:16:23;;;;;;;12.00;7.70;;;;;;;22.08;100.00;100666.71;107130;1248;61872;-72
2023/07/12 23:18:52;;;;;;;14.00;8.00;;;;;;;22.09;100.00;100658.25;107168;1245;57447;-71
2023/07/12 23:21:23;;;;;;;11.90;7.20;;;;;;;22.10;100.00;100659.38;107136;1257;70740;-73
2023/07/12 23:23:51;;;;;;;12.90;7.40;;;;;;;22.07;100.00;100663.77;107059;1248;61734;-72
2023/07/12 23:26:20;;;;;;;10.80;7.40;;;;;;;22.04;100.00;100666.82;107114;1244;59949;-73
2023/07/12 23:28:49;;;;;;;13.70;8.00;;;;;;;21.87;100.00;100668.66;107084;1245;73725;-73
2023/07/12 23:31:18;;;;;;;10.40;8.00;;;;;;;21.71;100.00;100669.59;107107;1255;63335;-73
2023/07/12 23:33:47;;;;;;;14.60;8.20;;;;;;;21.57;100.00;100667.56;107113;1245;58967;-75
2023/07/12 23:36:19;;;;;;;9.50;7.80;;;;;;;21.44;100.00;100672.48;107185;1256;70644;-72
2023/07/12 23:38:48;;;;;;;12.40;8.50;;;;;;;21.41;100.00;100677.23;107126;1255;61877;-72
2023/07/12 23:41:17;;;;;;;12.50;8.10;;;;;;;21.34;100.00;100678.73;107172;1245;59893;-73
2023/07/12 23:43:46;;;;;;;12.80;8.30;;;;;;;21.27;100.00;100679.61;107278;1245;72981;-73
2023/07/12 23:46:14;;;;;;;9.60;7.90;;;;;;;21.22;100.00;100684.02;107303;1257;63057;-75
2023/07/12 23:48:43;;;;;;;11.90;7.70;;;;;;;21.17;100.00;100680.40;107304;1255;59492;-77
2023/07/12 23:51:13;;;;;;;12.60;8.20;;;;;;;21.11;100.00;100683.23;107255;1248;62968;-73
2023/07/12 23:53:42;;;;;;;12.80;8.50;;;;;;;21.01;100.00;100684.73;107300;1246;60733;-73
2023/07/12 23:56:12;;;;;;;13.80;8.80;;;;;;;20.94;100.00;100691.83;107240;1246;69761;-72
2023/07/12 23:58:45;;;;;;;12.50;8.70;;;;;;;20.88;100.00;100697.58;107243;1246;63528;-72
